createdAt,value
2022-10-29T03:02:20.002Z,7.92
2022-10-29T03:04:46.554Z,7.86
2022-10-29T03:07:13.109Z,7.77
2022-10-29T03:09:39.656Z,7.88
2022-10-29T03:12:06.687Z,7.87
2022-10-29T03:14:33.101Z,7.88
2022-10-29T03:16:59.806Z,7.89
2022-10-29T03:19:26.213Z,7.78
2022-10-29T03:21:52.635Z,7.78
2022-10-29T03:24:19.088Z,7.78
2022-10-29T03:26:45.535Z,7.75
2022-10-29T03:29:11.995Z,7.78
2022-10-29T03:31:38.455Z,7.77
2022-10-29T03:34:04.914Z,7.75
2022-10-29T03:36:31.480Z,7.76
2022-10-29T03:38:57.921Z,7.58
2022-10-29T03:41:24.347Z,7.69
2022-10-29T03:43:51.192Z,7.69
2022-10-29T03:46:17.810Z,7.69
2022-10-29T03:48:44.252Z,7.73
2022-10-29T03:51:10.693Z,7.74
2022-10-29T03:53:37.634Z,7.77
2022-10-29T03:56:04.481Z,7.73
2022-10-29T03:58:30.942Z,7.73
2022-10-29T04:01:00.401Z,7.63
2022-10-29T04:03:28.580Z,7.65
2022-10-29T04:05:55.517Z,7.65
2022-10-29T04:08:22.313Z,7.62
2022-10-29T04:10:50.504Z,7.70
2022-10-29T04:13:17.886Z,7.70
2022-10-29T04:15:44.861Z,7.69
2022-10-29T04:18:12.478Z,7.67
2022-10-29T04:20:54.322Z,7.70
2022-10-29T04:28:59.817Z,7.78
2022-10-29T04:31:26.306Z,7.73
2022-10-29T04:33:53.874Z,7.69
2022-10-29T04:36:20.291Z,7.71
2022-10-29T04:38:46.729Z,7.71
2022-10-29T04:41:13.157Z,7.61
2022-10-29T04:43:39.605Z,7.59
2022-10-29T04:46:06.015Z,7.57
2022-10-29T04:48:32.452Z,7.49
2022-10-29T04:50:58.853Z,7.55
2022-10-29T04:53:25.293Z,7.50
2022-10-29T04:55:51.769Z,7.51
2022-10-29T04:58:19.701Z,7.50
2022-10-29T05:00:46.660Z,7.40
2022-10-29T05:03:13.398Z,7.46
2022-10-29T05:05:39.995Z,7.53
2022-10-29T05:08:06.896Z,7.57
2022-10-29T05:10:35.712Z,7.58
2022-10-29T05:13:04.396Z,7.58
2022-10-29T05:15:30.906Z,7.62
2022-10-29T05:17:57.814Z,7.58
2022-10-29T05:20:25.281Z,7.53
2022-10-29T05:22:59.025Z,7.50
2022-10-29T05:25:25.552Z,7.46
2022-10-29T05:28:00.839Z,7.44
2022-10-29T05:30:27.259Z,7.47
2022-10-29T05:32:53.987Z,7.44
2022-10-29T05:35:20.646Z,7.54
2022-10-29T05:37:54.427Z,7.55
2022-10-29T05:40:24.382Z,7.60
2022-10-29T05:42:50.836Z,7.60
2022-10-29T05:45:17.950Z,7.61
2022-10-29T05:47:44.683Z,7.66
2022-10-29T05:50:12.227Z,7.52
2022-10-29T05:52:39.076Z,7.56
2022-10-29T05:55:06.264Z,7.57
2022-10-29T05:57:32.775Z,7.58
2022-10-29T05:59:59.190Z,7.62
2022-10-29T06:02:25.847Z,7.63
2022-10-29T06:04:52.472Z,7.72
2022-10-29T06:07:18.920Z,7.81
2022-10-29T06:09:45.362Z,7.87
2022-10-29T06:12:11.792Z,7.90
2022-10-29T06:14:38.222Z,8.02
2022-10-29T06:17:04.655Z,8.11
2022-10-29T06:19:31.122Z,8.20
2022-10-29T06:22:00.325Z,8.27
2022-10-29T06:24:27.281Z,8.35
2022-10-29T06:26:54.485Z,8.32
2022-10-29T06:29:20.905Z,8.38
2022-10-29T06:31:47.462Z,8.39
2022-10-29T06:34:14.664Z,8.51
2022-10-29T06:36:41.165Z,8.44
2022-10-29T06:39:07.694Z,8.55
2022-10-29T06:41:34.193Z,8.64
2022-10-29T06:44:00.641Z,8.71
2022-10-29T06:46:27.248Z,8.73
2022-10-29T06:48:53.926Z,8.81
2022-10-29T06:51:20.353Z,8.85
2022-10-29T06:53:46.821Z,8.90
2022-10-29T06:56:13.256Z,9.01
2022-10-29T06:58:39.690Z,9.04
2022-10-29T07:01:06.275Z,9.26
2022-10-29T07:03:32.723Z,9.37
2022-10-29T07:06:00.174Z,9.51
2022-10-29T07:08:27.076Z,9.53
2022-10-29T07:10:54.498Z,9.62
2022-10-29T07:13:20.953Z,9.67
2022-10-29T07:15:47.409Z,9.66
2022-10-29T07:18:13.949Z,9.78
2022-10-29T07:20:42.978Z,9.91
2022-10-29T07:23:10.960Z,10.17
2022-10-29T07:25:38.422Z,10.42
2022-10-29T07:28:05.154Z,10.66
2022-10-29T07:30:32.230Z,10.88
2022-10-29T07:32:58.663Z,11.08
2022-10-29T07:35:25.147Z,11.25
2022-10-29T07:37:51.597Z,11.42
2022-10-29T07:40:18.099Z,11.98
2022-10-29T07:42:44.526Z,12.49
2022-10-29T07:45:11.022Z,12.46
2022-10-29T07:47:37.511Z,12.47
2022-10-29T07:50:04.456Z,12.63
2022-10-29T07:52:30.877Z,12.87
2022-10-29T07:54:57.369Z,13.44
2022-10-29T07:57:23.852Z,14.90
2022-10-29T07:59:51.929Z,15.12
2022-10-29T08:02:18.459Z,15.09
2022-10-29T08:04:45.001Z,15.36
2022-10-29T08:07:11.463Z,16.47
2022-10-29T08:09:37.944Z,17.01
2022-10-29T08:12:06.937Z,17.27
2022-10-29T08:14:33.394Z,17.35
2022-10-29T08:16:59.857Z,17.94
2022-10-29T08:19:26.307Z,17.77
2022-10-29T08:21:52.738Z,18.53
2022-10-29T08:24:19.794Z,19.01
2022-10-29T08:26:46.218Z,19.21
2022-10-29T08:29:12.682Z,19.33
2022-10-29T08:31:39.232Z,19.75
2022-10-29T08:34:10.747Z,20.04
2022-10-29T08:36:37.602Z,20.68
2022-10-29T08:39:04.099Z,20.03
2022-10-29T08:42:00.014Z,19.72
2022-10-29T08:44:45.266Z,18.66
2022-10-29T08:47:20.465Z,18.02
2022-10-29T08:49:55.914Z,17.56
2022-10-29T08:52:28.370Z,17.61
2022-10-29T08:55:01.038Z,17.76
2022-10-29T08:57:47.860Z,17.45
2022-10-29T09:00:18.745Z,17.22
2022-10-29T09:02:45.617Z,17.06
2022-10-29T09:05:17.075Z,17.17
2022-10-29T09:08:03.678Z,17.46
2022-10-29T09:10:45.966Z,17.28
2022-10-29T09:13:33.135Z,17.22
2022-10-29T09:16:11.687Z,17.14
2022-10-29T09:19:00.087Z,17.09
2022-10-29T09:21:34.071Z,17.10
2022-10-29T09:24:22.156Z,17.12
2022-10-29T09:26:56.970Z,17.08
2022-10-29T09:29:46.039Z,16.94
2022-10-29T09:32:22.613Z,17.09
2022-10-29T09:34:50.745Z,17.14
2022-10-29T09:37:22.012Z,17.12
2022-10-29T09:39:48.692Z,17.22
2022-10-29T09:42:21.914Z,17.07
2022-10-29T09:44:58.189Z,17.19
2022-10-29T09:47:45.729Z,17.18
2022-10-29T09:50:34.024Z,17.11
2022-10-29T09:53:00.510Z,17.12
2022-10-29T09:55:34.187Z,17.03
2022-10-29T09:58:00.651Z,16.88
2022-10-29T10:00:30.572Z,17.07
2022-10-29T10:03:07.749Z,17.07
2022-10-29T10:05:58.219Z,17.02
2022-10-29T10:08:24.744Z,17.06
2022-10-29T10:11:05.790Z,16.89
2022-10-29T10:13:52.664Z,16.73
2022-10-29T10:16:28.255Z,16.74
2022-10-29T10:18:54.755Z,16.60
2022-10-29T10:21:26.688Z,16.69
2022-10-29T10:23:55.033Z,16.60
2022-10-29T10:26:43.837Z,16.63
2022-10-29T10:29:19.074Z,16.67
2022-10-29T10:31:46.437Z,16.74
2022-10-29T10:34:26.926Z,16.69
2022-10-29T10:37:03.238Z,16.49
2022-10-29T10:39:32.451Z,16.76
2022-10-29T10:42:02.154Z,16.74
2022-10-29T10:44:29.147Z,16.59
2022-10-29T10:46:59.348Z,16.54
2022-10-29T10:49:38.863Z,16.55
2022-10-29T10:52:15.293Z,16.52
2022-10-29T10:55:05.414Z,16.63
2022-10-29T10:57:42.195Z,16.80
2022-10-29T11:00:20.661Z,16.85
2022-10-29T11:03:00.876Z,16.80
2022-10-29T11:06:08.567Z,16.73
2022-10-29T11:08:45.438Z,16.77
2022-10-29T11:11:22.284Z,16.73
2022-10-29T11:13:50.349Z,16.73
2022-10-29T11:16:32.831Z,16.87
2022-10-29T11:19:05.631Z,16.90
2022-10-29T11:21:41.003Z,16.96
2022-10-29T11:24:19.208Z,16.98
2022-10-29T11:26:55.136Z,17.08
2022-10-29T11:29:30.895Z,17.19
2022-10-29T11:32:07.271Z,17.18
2022-10-29T11:35:11.293Z,17.26
2022-10-29T11:37:50.703Z,17.28
2022-10-29T11:40:23.409Z,17.16
2022-10-29T11:42:50.150Z,17.11
2022-10-29T11:45:47.088Z,17.02
2022-10-29T11:48:33.856Z,17.08
2022-10-29T11:51:16.009Z,17.12
2022-10-29T11:53:45.248Z,17.15
2022-10-29T11:57:02.192Z,17.08
2022-10-29T12:00:03.664Z,17.08
2022-10-29T12:02:41.858Z,17.09
2022-10-29T12:05:39.273Z,17.17
2022-10-29T12:08:21.060Z,17.15
2022-10-29T12:11:06.242Z,17.23
2022-10-29T12:13:49.874Z,17.27
2022-10-29T12:16:16.325Z,17.25
2022-10-29T12:19:01.187Z,17.29
2022-10-29T12:21:30.740Z,17.28
2022-10-29T12:24:22.195Z,17.30
2022-10-29T12:26:54.654Z,17.18
2022-10-29T12:29:27.050Z,17.09
2022-10-29T12:32:10.081Z,17.01
2022-10-29T12:34:56.095Z,17.05
2022-10-29T12:37:37.171Z,17.12
2022-10-29T12:40:16.029Z,17.21
2022-10-29T12:42:43.413Z,17.21
2022-10-29T12:45:21.432Z,17.28
2022-10-29T12:48:05.978Z,17.29
2022-10-29T12:50:47.685Z,17.38
2022-10-29T12:53:40.195Z,17.41
2022-10-29T12:56:07.572Z,17.42
2022-10-29T12:58:45.000Z,17.45
2022-10-29T13:08:11.101Z,17.46
2022-10-29T13:10:37.485Z,17.45
2022-10-29T13:13:18.236Z,17.43
2022-10-29T13:15:58.042Z,17.42
2022-10-29T13:18:41.775Z,17.44
2022-10-29T13:21:08.782Z,17.47
2022-10-29T13:23:37.549Z,17.38
2022-10-29T13:26:08.065Z,17.47
2022-10-29T13:28:37.265Z,17.45
2022-10-29T13:31:03.696Z,17.45
2022-10-29T13:33:30.094Z,17.47
2022-10-29T13:36:04.333Z,17.41
2022-10-29T13:38:46.941Z,17.42
2022-10-29T13:41:29.258Z,17.46
2022-10-29T13:44:24.870Z,17.51
2022-10-29T13:47:03.431Z,17.55
2022-10-29T13:49:49.702Z,17.58
2022-10-29T13:52:21.813Z,17.57
2022-10-29T13:54:56.666Z,17.53
2022-10-29T13:57:36.929Z,17.46
2022-10-29T14:00:12.430Z,17.44
2022-10-29T14:02:50.460Z,17.51
2022-10-29T14:05:35.425Z,17.39
2022-10-29T14:08:21.495Z,17.34
2022-10-29T14:10:59.541Z,17.32
2022-10-29T14:13:47.994Z,17.34
2022-10-29T14:16:16.695Z,17.34
2022-10-29T14:18:45.385Z,17.26
2022-10-29T14:21:37.164Z,17.19
2022-10-29T14:24:09.107Z,17.13
2022-10-29T14:27:19.507Z,17.09
2022-10-29T14:29:46.176Z,17.02
2022-10-29T14:32:19.203Z,16.91
2022-10-29T14:34:49.110Z,16.88
2022-10-29T14:37:24.751Z,16.85
2022-10-29T14:40:01.058Z,16.80
2022-10-29T14:42:43.058Z,16.79
2022-10-29T14:48:56.859Z,16.63
2022-10-29T14:51:24.359Z,16.55
2022-10-29T14:54:03.335Z,16.51
2022-10-29T14:56:36.180Z,16.45
2022-10-29T14:59:09.607Z,16.39
2022-10-29T15:01:46.375Z,16.33
2022-10-29T15:04:23.241Z,16.24
2022-10-29T15:06:50.058Z,16.07
2022-10-29T15:09:21.202Z,16.12
2022-10-29T15:11:59.154Z,16.01
2022-10-29T15:14:31.523Z,15.91
2022-10-29T15:16:59.974Z,15.82
2022-10-29T15:19:26.851Z,15.67
2022-10-29T15:21:53.391Z,15.54
2022-10-29T15:24:23.375Z,15.52
2022-10-29T15:27:00.231Z,15.42
2022-10-29T15:29:34.082Z,15.40
2022-10-29T15:32:40.873Z,15.40
2022-10-29T15:35:10.282Z,15.22
2022-10-29T15:37:41.773Z,15.18
2022-10-29T15:40:20.014Z,14.93
2022-10-29T15:42:46.920Z,14.76
2022-10-29T15:45:15.961Z,14.65
2022-10-29T15:47:44.745Z,14.55
2022-10-29T15:50:40.714Z,14.41
2022-10-29T15:53:30.898Z,14.28
2022-10-29T15:55:58.196Z,14.16
2022-10-29T15:58:24.729Z,14.06
2022-10-29T16:00:51.630Z,13.97
2022-10-29T16:03:25.749Z,13.88
2022-10-29T16:06:11.322Z,13.82
2022-10-29T16:08:52.131Z,13.74
2022-10-29T16:11:22.995Z,13.62
2022-10-29T16:13:55.193Z,13.48
2022-10-29T16:16:24.159Z,13.38
2022-10-29T16:18:51.451Z,13.36
2022-10-29T16:21:24.283Z,13.26
2022-10-29T16:23:51.771Z,13.20
2022-10-29T16:26:23.663Z,13.15
2022-10-29T16:28:52.568Z,13.05
2022-10-29T16:31:21.667Z,12.92
2022-10-29T16:33:49.179Z,12.79
2022-10-29T16:36:16.099Z,12.81
2022-10-29T16:38:43.832Z,12.72
2022-10-29T16:41:15.427Z,12.57
2022-10-29T16:43:42.526Z,12.61
2022-10-29T16:46:09.778Z,12.56
2022-10-29T16:48:36.751Z,12.47
2022-10-29T16:51:03.446Z,12.40
2022-10-29T16:53:29.901Z,12.34
2022-10-29T16:55:56.928Z,12.24
2022-10-29T17:02:11.222Z,12.12
2022-10-29T17:04:37.786Z,12.07
2022-10-29T17:07:04.332Z,11.97
2022-10-29T17:09:30.865Z,11.97
2022-10-29T17:11:57.735Z,11.91
2022-10-29T17:14:24.737Z,11.87
2022-10-29T17:16:51.193Z,11.81
2022-10-29T17:19:17.670Z,11.73
2022-10-29T17:21:44.283Z,11.70
2022-10-29T17:24:10.829Z,11.65
2022-10-29T17:26:37.297Z,11.64
2022-10-29T17:29:03.927Z,11.61
2022-10-29T17:31:30.387Z,11.61
2022-10-29T17:33:57.053Z,11.54
2022-10-29T17:36:23.526Z,11.47
2022-10-29T17:38:49.974Z,11.53
2022-10-29T17:41:16.431Z,11.60
2022-10-29T17:43:42.954Z,11.55
2022-10-29T17:46:09.389Z,11.56
2022-10-29T17:48:36.655Z,11.53
2022-10-29T17:51:03.353Z,11.63
2022-10-29T17:53:31.178Z,11.57
2022-10-29T17:55:59.355Z,11.48
2022-10-29T17:58:26.387Z,11.34
2022-10-29T18:00:53.291Z,11.28
2022-10-29T18:03:19.784Z,11.20
2022-10-29T18:05:47.079Z,11.12
2022-10-29T18:08:13.527Z,11.10
2022-10-29T18:10:40.035Z,11.07
2022-10-29T18:13:06.508Z,11.03
2022-10-29T18:15:32.964Z,10.94
2022-10-29T18:18:00.642Z,10.96
2022-10-29T18:20:27.142Z,10.98
2022-10-29T18:22:55.860Z,10.86
2022-10-29T18:26:06.319Z,10.83
2022-10-29T18:28:33.335Z,10.81
2022-10-29T18:31:00.169Z,10.84
2022-10-29T18:33:27.206Z,10.80
2022-10-29T18:35:54.774Z,10.74
2022-10-29T18:38:22.464Z,10.68
2022-10-29T18:40:58.355Z,10.68
2022-10-29T18:47:12.069Z,10.55
2022-10-29T18:49:38.495Z,10.55
2022-10-29T18:52:04.981Z,10.53
2022-10-29T18:54:31.481Z,10.50
2022-10-29T18:56:58.157Z,10.50
2022-10-29T18:59:24.699Z,10.48
2022-10-29T19:01:51.214Z,10.45
2022-10-29T19:04:17.787Z,10.30
2022-10-29T19:06:44.330Z,10.25
2022-10-29T19:09:11.742Z,10.22
2022-10-29T19:11:38.322Z,10.19
2022-10-29T19:14:07.108Z,10.13
2022-10-29T19:16:34.023Z,10.13
2022-10-29T19:21:37.105Z,10.05
2022-10-29T19:24:04.491Z,10.05
2022-10-29T19:26:33.544Z,10.07
2022-10-29T19:29:02.039Z,10.04
2022-10-29T19:31:30.030Z,10.03
2022-10-29T19:33:59.407Z,9.97
2022-10-29T19:36:27.541Z,10.02
2022-10-29T19:38:54.198Z,9.94
2022-10-29T19:41:20.660Z,9.90
2022-10-29T19:43:47.641Z,9.88
2022-10-29T19:46:19.051Z,9.90
2022-10-29T19:48:52.914Z,9.92
2022-10-29T19:51:20.350Z,9.86
2022-10-29T19:53:48.430Z,9.74
2022-10-29T19:56:16.779Z,9.73
2022-10-29T19:58:43.671Z,9.78
2022-10-29T20:01:16.138Z,9.79
2022-10-29T20:03:43.252Z,9.71
2022-10-29T20:06:10.275Z,9.67
2022-10-29T20:08:37.604Z,9.70
2022-10-29T20:11:04.392Z,9.62
2022-10-29T20:13:30.945Z,9.57
2022-10-29T20:15:57.574Z,9.60
2022-10-29T20:18:24.046Z,9.62
2022-10-29T20:20:57.099Z,9.55
2022-10-29T20:23:25.659Z,9.58
2022-10-29T20:25:52.445Z,9.55
2022-10-29T20:28:18.930Z,9.49
2022-10-29T20:30:45.408Z,9.38
2022-10-29T20:33:11.902Z,9.32
2022-10-29T20:35:38.398Z,9.34
2022-10-29T20:38:05.793Z,9.37
2022-10-29T20:40:32.317Z,9.39
2022-10-29T20:42:58.909Z,9.36
2022-10-29T20:45:25.480Z,9.41
2022-10-29T20:47:51.936Z,9.38
2022-10-29T20:50:18.429Z,9.32
2022-10-29T20:52:48.654Z,9.29
2022-10-29T20:55:15.577Z,9.25
2022-10-29T20:57:42.022Z,9.33
2022-10-29T21:00:09.224Z,9.32
2022-10-29T21:02:35.735Z,9.28
2022-10-29T21:05:02.303Z,9.23
2022-10-29T21:07:28.731Z,9.36
2022-10-29T21:09:55.159Z,9.41
2022-10-29T21:12:21.657Z,9.30
2022-10-29T21:14:48.139Z,9.32
2022-10-29T21:17:14.688Z,9.34
2022-10-29T21:19:41.163Z,9.31
2022-10-29T21:22:07.846Z,9.30
2022-10-29T21:24:35.566Z,9.22
2022-10-29T21:27:02.289Z,9.17
2022-10-29T21:29:28.754Z,9.13
